sensor_id;sensor_type;location;lat;lon;timestamp;P1;durP1;ratioP1;P2;durP2;ratioP2
59790;SDS011;47431;51.640;5.554;2023-02-15T00:01:16;45.87;;;28.23;;
59790;SDS011;47431;51.640;5.554;2023-02-15T00:03:41;46.27;;;28.30;;
59790;SDS011;47431;51.640;5.554;2023-02-15T00:06:07;300.03;;;57.57;;
59790;SDS011;47431;51.640;5.554;2023-02-15T00:08:32;212.70;;;45.63;;
59790;SDS011;47431;51.640;5.554;2023-02-15T00:11:07;345.40;;;61.67;;
59790;SDS011;47431;51.640;5.554;2023-02-15T00:13:33;195.40;;;42.40;;
59790;SDS011;47431;51.640;5.554;2023-02-15T00:16:03;54.20;;;31.23;;
59790;SDS011;47431;51.640;5.554;2023-02-15T00:18:29;50.93;;;29.37;;
59790;SDS011;47431;51.640;5.554;2023-02-15T00:20:54;50.77;;;29.60;;
59790;SDS011;47431;51.640;5.554;2023-02-15T00:23:19;65.13;;;31.50;;
59790;SDS011;47431;51.640;5.554;2023-02-15T00:25:45;47.77;;;29.60;;
59790;SDS011;47431;51.640;5.554;2023-02-15T00:28:10;53.77;;;29.47;;
59790;SDS011;47431;51.640;5.554;2023-02-15T00:30:35;49.97;;;30.13;;
59790;SDS011;47431;51.640;5.554;2023-02-15T00:33:00;171.70;;;50.47;;
59790;SDS011;47431;51.640;5.554;2023-02-15T00:35:26;296.27;;;66.80;;
59790;SDS011;47431;51.640;5.554;2023-02-15T00:37:51;173.93;;;41.50;;
59790;SDS011;47431;51.640;5.554;2023-02-15T00:40:17;135.87;;;39.47;;
59790;SDS011;47431;51.640;5.554;2023-02-15T00:42:42;141.40;;;37.67;;
59790;SDS011;47431;51.640;5.554;2023-02-15T00:45:08;314.70;;;63.07;;
59790;SDS011;47431;51.640;5.554;2023-02-15T00:47:33;125.33;;;40.47;;
59790;SDS011;47431;51.640;5.554;2023-02-15T00:49:58;292.03;;;65.70;;
59790;SDS011;47431;51.640;5.554;2023-02-15T00:52:23;315.07;;;60.03;;
59790;SDS011;47431;51.640;5.554;2023-02-15T00:54:49;71.03;;;33.30;;
59790;SDS011;47431;51.640;5.554;2023-02-15T00:57:14;56.20;;;31.70;;
59790;SDS011;47431;51.640;5.554;2023-02-15T00:59:39;60.87;;;30.60;;
59790;SDS011;47431;51.640;5.554;2023-02-15T01:02:04;50.67;;;33.17;;
59790;SDS011;47431;51.640;5.554;2023-02-15T01:04:30;221.83;;;54.90;;
59790;SDS011;47431;51.640;5.554;2023-02-15T01:06:55;99.77;;;39.73;;
59790;SDS011;47431;51.640;5.554;2023-02-15T01:09:20;54.90;;;32.77;;
59790;SDS011;47431;51.640;5.554;2023-02-15T01:11:45;70.20;;;35.40;;
59790;SDS011;47431;51.640;5.554;2023-02-15T01:14:11;237.80;;;60.83;;
59790;SDS011;47431;51.640;5.554;2023-02-15T01:16:36;390.20;;;73.33;;
59790;SDS011;47431;51.640;5.554;2023-02-15T01:19:01;175.23;;;42.50;;
59790;SDS011;47431;51.640;5.554;2023-02-15T01:21:27;86.80;;;34.70;;
59790;SDS011;47431;51.640;5.554;2023-02-15T01:23:52;187.80;;;52.17;;
59790;SDS011;47431;51.640;5.554;2023-02-15T01:26:18;227.40;;;56.60;;
59790;SDS011;47431;51.640;5.554;2023-02-15T01:28:43;371.73;;;69.87;;
59790;SDS011;47431;51.640;5.554;2023-02-15T01:31:10;277.47;;;54.50;;
59790;SDS011;47431;51.640;5.554;2023-02-15T01:33:35;226.77;;;47.07;;
59790;SDS011;47431;51.640;5.554;2023-02-15T01:36:01;115.10;;;38.00;;
59790;SDS011;47431;51.640;5.554;2023-02-15T01:38:26;46.63;;;30.90;;
59790;SDS011;47431;51.640;5.554;2023-02-15T01:40:52;49.03;;;31.67;;
59790;SDS011;47431;51.640;5.554;2023-02-15T01:43:18;76.20;;;31.90;;
59790;SDS011;47431;51.640;5.554;2023-02-15T01:45:43;54.97;;;26.63;;
59790;SDS011;47431;51.640;5.554;2023-02-15T01:48:20;198.57;;;40.77;;
59790;SDS011;47431;51.640;5.554;2023-02-15T01:50:57;465.53;;;88.17;;
59790;SDS011;47431;51.640;5.554;2023-02-15T01:56:05;513.37;;;92.33;;
59790;SDS011;47431;51.640;5.554;2023-02-15T01:58:31;539.97;;;95.27;;
59790;SDS011;47431;51.640;5.554;2023-02-15T02:00:58;379.37;;;65.40;;
59790;SDS011;47431;51.640;5.554;2023-02-15T02:03:27;194.73;;;44.10;;
59790;SDS011;47431;51.640;5.554;2023-02-15T02:05:55;463.67;;;93.00;;
59790;SDS011;47431;51.640;5.554;2023-02-15T02:08:20;432.53;;;74.00;;
59790;SDS011;47431;51.640;5.554;2023-02-15T02:10:46;482.90;;;89.07;;
59790;SDS011;47431;51.640;5.554;2023-02-15T02:13:11;582.60;;;113.07;;
59790;SDS011;47431;51.640;5.554;2023-02-15T02:20:51;430.10;;;79.47;;
59790;SDS011;47431;51.640;5.554;2023-02-15T02:23:40;43.03;;;29.35;;
59790;SDS011;47431;51.640;5.554;2023-02-15T02:41:07;497.67;;;93.50;;
59790;SDS011;47431;51.640;5.554;2023-02-15T02:46:28;476.27;;;104.43;;
59790;SDS011;47431;51.640;5.554;2023-02-15T02:48:51;557.40;;;109.87;;
59790;SDS011;47431;51.640;5.554;2023-02-15T02:51:17;396.87;;;81.53;;
59790;SDS011;47431;51.640;5.554;2023-02-15T02:53:47;424.60;;;84.67;;
59790;SDS011;47431;51.640;5.554;2023-02-15T02:56:19;174.83;;;45.70;;
59790;SDS011;47431;51.640;5.554;2023-02-15T02:58:47;72.47;;;33.73;;
59790;SDS011;47431;51.640;5.554;2023-02-15T03:01:15;58.20;;;30.40;;
59790;SDS011;47431;51.640;5.554;2023-02-15T03:03:43;52.60;;;29.97;;
59790;SDS011;47431;51.640;5.554;2023-02-15T03:06:10;50.80;;;28.80;;
59790;SDS011;47431;51.640;5.554;2023-02-15T03:08:44;103.77;;;38.23;;
59790;SDS011;47431;51.640;5.554;2023-02-15T03:11:09;125.10;;;38.42;;
59790;SDS011;47431;51.640;5.554;2023-02-15T03:13:36;82.20;;;34.37;;
59790;SDS011;47431;51.640;5.554;2023-02-15T03:16:01;388.17;;;71.37;;
59790;SDS011;47431;51.640;5.554;2023-02-15T03:18:58;300.93;;;61.73;;
59790;SDS011;47431;51.640;5.554;2023-02-15T03:21:30;176.27;;;46.67;;
59790;SDS011;47431;51.640;5.554;2023-02-15T03:23:59;418.08;;;77.55;;
59790;SDS011;47431;51.640;5.554;2023-02-15T03:26:24;289.10;;;59.67;;
59790;SDS011;47431;51.640;5.554;2023-02-15T03:28:50;139.57;;;37.40;;
59790;SDS011;47431;51.640;5.554;2023-02-15T03:31:18;295.33;;;60.83;;
59790;SDS011;47431;51.640;5.554;2023-02-15T03:33:48;276.17;;;59.57;;
59790;SDS011;47431;51.640;5.554;2023-02-15T03:36:19;76.63;;;31.33;;
59790;SDS011;47431;51.640;5.554;2023-02-15T03:38:53;49.40;;;27.73;;
59790;SDS011;47431;51.640;5.554;2023-02-15T03:41:24;58.47;;;27.80;;
59790;SDS011;47431;51.640;5.554;2023-02-15T03:43:58;45.53;;;27.20;;
59790;SDS011;47431;51.640;5.554;2023-02-15T03:46:36;46.93;;;28.13;;
59790;SDS011;47431;51.640;5.554;2023-02-15T03:49:12;44.93;;;27.93;;
59790;SDS011;47431;51.640;5.554;2023-02-15T03:51:39;47.93;;;27.10;;
59790;SDS011;47431;51.640;5.554;2023-02-15T03:54:09;44.00;;;27.73;;
59790;SDS011;47431;51.640;5.554;2023-02-15T03:56:36;52.70;;;28.50;;
59790;SDS011;47431;51.640;5.554;2023-02-15T03:59:02;47.93;;;26.90;;
59790;SDS011;47431;51.640;5.554;2023-02-15T04:01:48;48.20;;;28.50;;
59790;SDS011;47431;51.640;5.554;2023-02-15T04:04:28;43.77;;;27.43;;
59790;SDS011;47431;51.640;5.554;2023-02-15T04:06:55;47.40;;;26.52;;
59790;SDS011;47431;51.640;5.554;2023-02-15T04:09:21;48.93;;;28.57;;
59790;SDS011;47431;51.640;5.554;2023-02-15T04:12:04;55.07;;;25.33;;
59790;SDS011;47431;51.640;5.554;2023-02-15T04:14:30;47.00;;;29.17;;
59790;SDS011;47431;51.640;5.554;2023-02-15T04:17:13;47.50;;;26.43;;
59790;SDS011;47431;51.640;5.554;2023-02-15T04:19:39;52.23;;;30.03;;
59790;SDS011;47431;51.640;5.554;2023-02-15T04:22:22;45.37;;;26.57;;
59790;SDS011;47431;51.640;5.554;2023-02-15T04:25:06;44.07;;;27.17;;
59790;SDS011;47431;51.640;5.554;2023-02-15T04:27:38;41.03;;;26.57;;
59790;SDS011;47431;51.640;5.554;2023-02-15T04:30:04;51.27;;;27.20;;
59790;SDS011;47431;51.640;5.554;2023-02-15T04:32:30;48.80;;;26.27;;
59790;SDS011;47431;51.640;5.554;2023-02-15T04:34:55;45.10;;;27.20;;
59790;SDS011;47431;51.640;5.554;2023-02-15T04:37:20;38.33;;;26.33;;
59790;SDS011;47431;51.640;5.554;2023-02-15T04:39:45;51.73;;;26.97;;
59790;SDS011;47431;51.640;5.554;2023-02-15T04:42:11;49.20;;;26.93;;
59790;SDS011;47431;51.640;5.554;2023-02-15T04:44:36;43.83;;;25.47;;
59790;SDS011;47431;51.640;5.554;2023-02-15T04:47:01;52.57;;;28.77;;
59790;SDS011;47431;51.640;5.554;2023-02-15T04:49:26;46.97;;;26.47;;
59790;SDS011;47431;51.640;5.554;2023-02-15T04:51:51;43.60;;;26.77;;
59790;SDS011;47431;51.640;5.554;2023-02-15T04:54:17;41.40;;;26.17;;
59790;SDS011;47431;51.640;5.554;2023-02-15T04:56:42;49.30;;;27.57;;
59790;SDS011;47431;51.640;5.554;2023-02-15T04:59:09;46.87;;;27.33;;
59790;SDS011;47431;51.640;5.554;2023-02-15T05:01:34;46.27;;;26.73;;
59790;SDS011;47431;51.640;5.554;2023-02-15T05:04:00;55.47;;;28.60;;
59790;SDS011;47431;51.640;5.554;2023-02-15T05:06:25;56.10;;;27.20;;
59790;SDS011;47431;51.640;5.554;2023-02-15T05:08:50;49.13;;;26.43;;
59790;SDS011;47431;51.640;5.554;2023-02-15T05:11:15;47.03;;;27.37;;
59790;SDS011;47431;51.640;5.554;2023-02-15T05:13:41;52.00;;;27.20;;
59790;SDS011;47431;51.640;5.554;2023-02-15T05:16:06;55.03;;;28.33;;
59790;SDS011;47431;51.640;5.554;2023-02-15T05:18:31;49.73;;;26.73;;
59790;SDS011;47431;51.640;5.554;2023-02-15T05:20:56;50.70;;;27.37;;
59790;SDS011;47431;51.640;5.554;2023-02-15T05:23:21;44.67;;;25.20;;
59790;SDS011;47431;51.640;5.554;2023-02-15T05:25:47;51.80;;;28.40;;
59790;SDS011;47431;51.640;5.554;2023-02-15T05:28:32;46.87;;;26.97;;
59790;SDS011;47431;51.640;5.554;2023-02-15T05:33:41;52.07;;;28.83;;
59790;SDS011;47431;51.640;5.554;2023-02-15T05:36:06;52.20;;;26.43;;
59790;SDS011;47431;51.640;5.554;2023-02-15T05:38:32;48.23;;;27.47;;
59790;SDS011;47431;51.640;5.554;2023-02-15T05:40:58;57.97;;;27.40;;
59790;SDS011;47431;51.640;5.554;2023-02-15T05:43:23;51.17;;;27.23;;
59790;SDS011;47431;51.640;5.554;2023-02-15T05:45:49;45.37;;;28.00;;
59790;SDS011;47431;51.640;5.554;2023-02-15T05:48:15;59.97;;;29.33;;
59790;SDS011;47431;51.640;5.554;2023-02-15T05:50:40;50.37;;;27.33;;
59790;SDS011;47431;51.640;5.554;2023-02-15T05:53:05;58.77;;;27.90;;
59790;SDS011;47431;51.640;5.554;2023-02-15T05:55:30;48.77;;;27.63;;
59790;SDS011;47431;51.640;5.554;2023-02-15T05:57:56;49.87;;;28.17;;
59790;SDS011;47431;51.640;5.554;2023-02-15T06:00:21;50.87;;;29.77;;
59790;SDS011;47431;51.640;5.554;2023-02-15T06:02:46;48.10;;;27.63;;
59790;SDS011;47431;51.640;5.554;2023-02-15T06:05:11;44.37;;;26.77;;
59790;SDS011;47431;51.640;5.554;2023-02-15T06:07:36;56.43;;;30.67;;
59790;SDS011;47431;51.640;5.554;2023-02-15T06:10:02;53.47;;;27.60;;
59790;SDS011;47431;51.640;5.554;2023-02-15T06:12:27;54.67;;;27.60;;
59790;SDS011;47431;51.640;5.554;2023-02-15T06:14:53;52.40;;;29.20;;
59790;SDS011;47431;51.640;5.554;2023-02-15T06:17:18;49.20;;;27.23;;
59790;SDS011;47431;51.640;5.554;2023-02-15T06:19:43;49.83;;;27.53;;
59790;SDS011;47431;51.640;5.554;2023-02-15T06:22:08;46.27;;;25.57;;
59790;SDS011;47431;51.640;5.554;2023-02-15T06:24:34;56.07;;;29.43;;
59790;SDS011;47431;51.640;5.554;2023-02-15T06:26:59;55.40;;;28.33;;
59790;SDS011;47431;51.640;5.554;2023-02-15T06:29:24;54.63;;;30.67;;
59790;SDS011;47431;51.640;5.554;2023-02-15T06:31:49;45.67;;;28.83;;
59790;SDS011;47431;51.640;5.554;2023-02-15T06:34:15;49.40;;;29.70;;
59790;SDS011;47431;51.640;5.554;2023-02-15T06:36:40;52.17;;;26.50;;
59790;SDS011;47431;51.640;5.554;2023-02-15T06:39:05;52.97;;;29.43;;
59790;SDS011;47431;51.640;5.554;2023-02-15T06:41:31;53.37;;;28.53;;
59790;SDS011;47431;51.640;5.554;2023-02-15T06:43:56;55.07;;;28.70;;
59790;SDS011;47431;51.640;5.554;2023-02-15T06:46:21;49.30;;;29.07;;
59790;SDS011;47431;51.640;5.554;2023-02-15T06:48:46;52.03;;;31.57;;
59790;SDS011;47431;51.640;5.554;2023-02-15T06:51:12;55.33;;;27.93;;
59790;SDS011;47431;51.640;5.554;2023-02-15T06:53:37;46.93;;;28.23;;
59790;SDS011;47431;51.640;5.554;2023-02-15T06:56:03;56.50;;;28.80;;
59790;SDS011;47431;51.640;5.554;2023-02-15T06:58:31;53.27;;;29.00;;
59790;SDS011;47431;51.640;5.554;2023-02-15T07:00:56;66.23;;;33.20;;
59790;SDS011;47431;51.640;5.554;2023-02-15T07:03:21;62.90;;;28.83;;
59790;SDS011;47431;51.640;5.554;2023-02-15T07:05:47;52.20;;;25.53;;
59790;SDS011;47431;51.640;5.554;2023-02-15T07:08:13;50.20;;;25.97;;
59790;SDS011;47431;51.640;5.554;2023-02-15T07:10:39;45.33;;;27.40;;
59790;SDS011;47431;51.640;5.554;2023-02-15T07:13:08;63.73;;;31.17;;
59790;SDS011;47431;51.640;5.554;2023-02-15T07:15:33;52.53;;;28.03;;
59790;SDS011;47431;51.640;5.554;2023-02-15T07:17:58;48.63;;;28.93;;
59790;SDS011;47431;51.640;5.554;2023-02-15T07:20:24;47.90;;;27.90;;
59790;SDS011;47431;51.640;5.554;2023-02-15T07:22:49;52.03;;;31.33;;
59790;SDS011;47431;51.640;5.554;2023-02-15T07:25:15;49.40;;;29.73;;
59790;SDS011;47431;51.640;5.554;2023-02-15T07:27:41;59.40;;;31.03;;
59790;SDS011;47431;51.640;5.554;2023-02-15T07:30:06;60.30;;;30.60;;
59790;SDS011;47431;51.640;5.554;2023-02-15T07:32:32;62.47;;;30.90;;
59790;SDS011;47431;51.640;5.554;2023-02-15T07:34:57;54.70;;;31.23;;
59790;SDS011;47431;51.640;5.554;2023-02-15T07:37:23;59.90;;;33.50;;
59790;SDS011;47431;51.640;5.554;2023-02-15T07:39:48;62.97;;;32.43;;
59790;SDS011;47431;51.640;5.554;2023-02-15T07:42:13;62.17;;;32.13;;
59790;SDS011;47431;51.640;5.554;2023-02-15T07:44:39;53.73;;;30.83;;
59790;SDS011;47431;51.640;5.554;2023-02-15T07:47:04;53.83;;;31.27;;
59790;SDS011;47431;51.640;5.554;2023-02-15T07:49:29;66.80;;;36.60;;
59790;SDS011;47431;51.640;5.554;2023-02-15T07:51:54;59.13;;;36.10;;
59790;SDS011;47431;51.640;5.554;2023-02-15T07:54:20;64.33;;;33.83;;
59790;SDS011;47431;51.640;5.554;2023-02-15T07:56:45;54.53;;;33.10;;
59790;SDS011;47431;51.640;5.554;2023-02-15T07:59:10;64.33;;;35.60;;
59790;SDS011;47431;51.640;5.554;2023-02-15T08:01:36;63.63;;;37.13;;
59790;SDS011;47431;51.640;5.554;2023-02-15T08:04:02;65.40;;;37.53;;
59790;SDS011;47431;51.640;5.554;2023-02-15T08:06:28;66.27;;;37.63;;
59790;SDS011;47431;51.640;5.554;2023-02-15T08:08:54;62.73;;;35.10;;
59790;SDS011;47431;51.640;5.554;2023-02-15T08:13:58;68.17;;;36.93;;
59790;SDS011;47431;51.640;5.554;2023-02-15T08:16:29;65.80;;;40.33;;
59790;SDS011;47431;51.640;5.554;2023-02-15T08:18:56;63.47;;;33.83;;
59790;SDS011;47431;51.640;5.554;2023-02-15T08:21:21;64.27;;;36.83;;
59790;SDS011;47431;51.640;5.554;2023-02-15T08:23:47;64.33;;;40.40;;
59790;SDS011;47431;51.640;5.554;2023-02-15T08:26:12;64.67;;;36.90;;
59790;SDS011;47431;51.640;5.554;2023-02-15T08:28:37;57.27;;;32.23;;
59790;SDS011;47431;51.640;5.554;2023-02-15T08:31:09;67.03;;;37.60;;
59790;SDS011;47431;51.640;5.554;2023-02-15T08:33:35;62.80;;;35.33;;
59790;SDS011;47431;51.640;5.554;2023-02-15T08:36:08;64.43;;;35.07;;
59790;SDS011;47431;51.640;5.554;2023-02-15T08:38:34;68.23;;;38.80;;
59790;SDS011;47431;51.640;5.554;2023-02-15T08:43:55;71.70;;;38.55;;
59790;SDS011;47431;51.640;5.554;2023-02-15T08:46:22;64.75;;;43.33;;
59790;SDS011;47431;51.640;5.554;2023-02-15T08:48:47;63.55;;;39.55;;
59790;SDS011;47431;51.640;5.554;2023-02-15T08:53:42;58.90;;;38.55;;
59790;SDS011;47431;51.640;5.554;2023-02-15T08:56:09;60.88;;;37.60;;
59790;SDS011;47431;51.640;5.554;2023-02-15T08:58:34;58.17;;;37.92;;
59790;SDS011;47431;51.640;5.554;2023-02-15T09:01:00;61.50;;;40.15;;
59790;SDS011;47431;51.640;5.554;2023-02-15T09:03:27;49.78;;;33.03;;
59790;SDS011;47431;51.640;5.554;2023-02-15T09:05:57;42.72;;;30.48;;
59790;SDS011;47431;51.640;5.554;2023-02-15T09:08:23;48.08;;;33.55;;
59790;SDS011;47431;51.640;5.554;2023-02-15T09:10:48;44.03;;;32.35;;
59790;SDS011;47431;51.640;5.554;2023-02-15T09:13:13;48.70;;;31.80;;
59790;SDS011;47431;51.640;5.554;2023-02-15T09:15:38;43.30;;;32.10;;
59790;SDS011;47431;51.640;5.554;2023-02-15T09:18:04;50.97;;;34.45;;
59790;SDS011;47431;51.640;5.554;2023-02-15T09:20:31;45.63;;;31.20;;
59790;SDS011;47431;51.640;5.554;2023-02-15T09:22:56;45.95;;;31.58;;
59790;SDS011;47431;51.640;5.554;2023-02-15T09:25:22;43.10;;;29.35;;
59790;SDS011;47431;51.640;5.554;2023-02-15T09:27:47;44.75;;;31.52;;
59790;SDS011;47431;51.640;5.554;2023-02-15T09:30:12;38.25;;;29.52;;
59790;SDS011;47431;51.640;5.554;2023-02-15T09:32:38;45.80;;;32.22;;
59790;SDS011;47431;51.640;5.554;2023-02-15T09:35:03;44.97;;;32.35;;
59790;SDS011;47431;51.640;5.554;2023-02-15T09:37:29;44.70;;;31.08;;
59790;SDS011;47431;51.640;5.554;2023-02-15T09:39:55;42.67;;;30.90;;
59790;SDS011;47431;51.640;5.554;2023-02-15T09:42:24;38.45;;;28.85;;
59790;SDS011;47431;51.640;5.554;2023-02-15T09:52:36;40.42;;;31.05;;
59790;SDS011;47431;51.640;5.554;2023-02-15T10:10:35;35.92;;;28.35;;
59790;SDS011;47431;51.640;5.554;2023-02-15T10:13:13;43.33;;;30.58;;
59790;SDS011;47431;51.640;5.554;2023-02-15T10:18:13;37.25;;;29.02;;
59790;SDS011;47431;51.640;5.554;2023-02-15T10:36:28;37.78;;;28.88;;
59790;SDS011;47431;51.640;5.554;2023-02-15T10:39:00;39.60;;;30.13;;
59790;SDS011;47431;51.640;5.554;2023-02-15T10:49:23;40.13;;;31.00;;
59790;SDS011;47431;51.640;5.554;2023-02-15T10:54:41;37.83;;;30.40;;
59790;SDS011;47431;51.640;5.554;2023-02-15T10:57:26;38.38;;;29.25;;
59790;SDS011;47431;51.640;5.554;2023-02-15T11:00:05;37.67;;;28.92;;
59790;SDS011;47431;51.640;5.554;2023-02-15T11:02:39;37.28;;;30.00;;
59790;SDS011;47431;51.640;5.554;2023-02-15T11:07:51;41.28;;;28.83;;
59790;SDS011;47431;51.640;5.554;2023-02-15T11:10:32;42.08;;;29.77;;
59790;SDS011;47431;51.640;5.554;2023-02-15T11:13:01;35.73;;;27.97;;
59790;SDS011;47431;51.640;5.554;2023-02-15T11:15:31;38.13;;;28.75;;
59790;SDS011;47431;51.640;5.554;2023-02-15T11:18:08;39.38;;;30.10;;
59790;SDS011;47431;51.640;5.554;2023-02-15T11:20:36;39.75;;;28.35;;
59790;SDS011;47431;51.640;5.554;2023-02-15T11:23:06;41.40;;;32.50;;
59790;SDS011;47431;51.640;5.554;2023-02-15T11:25:34;33.65;;;28.65;;
59790;SDS011;47431;51.640;5.554;2023-02-15T11:28:00;41.72;;;30.08;;
59790;SDS011;47431;51.640;5.554;2023-02-15T11:30:29;44.55;;;31.65;;
59790;SDS011;47431;51.640;5.554;2023-02-15T11:32:58;41.70;;;31.58;;
59790;SDS011;47431;51.640;5.554;2023-02-15T11:38:04;38.88;;;31.10;;
59790;SDS011;47431;51.640;5.554;2023-02-15T11:40:32;41.35;;;33.20;;
59790;SDS011;47431;51.640;5.554;2023-02-15T11:43:00;50.40;;;31.65;;
59790;SDS011;47431;51.640;5.554;2023-02-15T11:45:33;40.13;;;29.27;;
59790;SDS011;47431;51.640;5.554;2023-02-15T11:47:59;45.55;;;30.13;;
59790;SDS011;47431;51.640;5.554;2023-02-15T11:50:29;63.40;;;31.55;;
59790;SDS011;47431;51.640;5.554;2023-02-15T11:53:06;38.92;;;27.63;;
59790;SDS011;47431;51.640;5.554;2023-02-15T11:55:34;37.30;;;27.70;;
59790;SDS011;47431;51.640;5.554;2023-02-15T11:58:02;38.17;;;28.38;;
59790;SDS011;47431;51.640;5.554;2023-02-15T12:00:34;43.80;;;29.17;;
59790;SDS011;47431;51.640;5.554;2023-02-15T12:03:02;41.53;;;30.70;;
59790;SDS011;47431;51.640;5.554;2023-02-15T12:05:28;43.00;;;29.15;;
59790;SDS011;47431;51.640;5.554;2023-02-15T12:07:55;41.03;;;28.92;;
59790;SDS011;47431;51.640;5.554;2023-02-15T12:10:23;40.97;;;28.20;;
59790;SDS011;47431;51.640;5.554;2023-02-15T12:13:08;35.78;;;28.33;;
59790;SDS011;47431;51.640;5.554;2023-02-15T12:15:40;48.17;;;28.63;;
59790;SDS011;47431;51.640;5.554;2023-02-15T12:18:15;41.88;;;29.50;;
59790;SDS011;47431;51.640;5.554;2023-02-15T12:20:42;38.08;;;27.83;;
59790;SDS011;47431;51.640;5.554;2023-02-15T12:23:14;42.47;;;30.33;;
59790;SDS011;47431;51.640;5.554;2023-02-15T12:25:52;39.55;;;28.90;;
59790;SDS011;47431;51.640;5.554;2023-02-15T12:28:32;35.72;;;26.77;;
59790;SDS011;47431;51.640;5.554;2023-02-15T12:30:59;48.65;;;30.67;;
59790;SDS011;47431;51.640;5.554;2023-02-15T12:33:34;72.32;;;33.25;;
59790;SDS011;47431;51.640;5.554;2023-02-15T12:36:01;45.10;;;30.52;;
59790;SDS011;47431;51.640;5.554;2023-02-15T12:38:28;56.13;;;32.85;;
59790;SDS011;47431;51.640;5.554;2023-02-15T12:40:58;43.65;;;29.10;;
59790;SDS011;47431;51.640;5.554;2023-02-15T12:43:25;50.13;;;31.45;;
59790;SDS011;47431;51.640;5.554;2023-02-15T12:45:51;39.95;;;28.20;;
59790;SDS011;47431;51.640;5.554;2023-02-15T12:48:17;40.35;;;29.25;;
59790;SDS011;47431;51.640;5.554;2023-02-15T12:50:43;40.00;;;31.10;;
59790;SDS011;47431;51.640;5.554;2023-02-15T12:55:50;41.75;;;28.13;;
59790;SDS011;47431;51.640;5.554;2023-02-15T12:58:16;40.10;;;30.10;;
59790;SDS011;47431;51.640;5.554;2023-02-15T13:00:42;54.30;;;31.38;;
59790;SDS011;47431;51.640;5.554;2023-02-15T13:03:15;49.92;;;33.22;;
59790;SDS011;47431;51.640;5.554;2023-02-15T13:05:42;43.50;;;33.05;;
59790;SDS011;47431;51.640;5.554;2023-02-15T13:10:39;49.92;;;31.80;;
59790;SDS011;47431;51.640;5.554;2023-02-15T13:13:50;47.22;;;33.67;;
59790;SDS011;47431;51.640;5.554;2023-02-15T13:15:58;39.45;;;29.02;;
59790;SDS011;47431;51.640;5.554;2023-02-15T13:18:43;56.97;;;32.92;;
59790;SDS011;47431;51.640;5.554;2023-02-15T13:21:13;53.60;;;34.92;;
59790;SDS011;47431;51.640;5.554;2023-02-15T13:23:40;43.47;;;32.72;;
59790;SDS011;47431;51.640;5.554;2023-02-15T13:26:08;44.10;;;31.25;;
59790;SDS011;47431;51.640;5.554;2023-02-15T13:28:38;44.67;;;32.15;;
59790;SDS011;47431;51.640;5.554;2023-02-15T13:31:05;39.60;;;29.60;;
59790;SDS011;47431;51.640;5.554;2023-02-15T13:33:36;43.58;;;31.08;;
59790;SDS011;47431;51.640;5.554;2023-02-15T13:49:27;41.13;;;30.85;;
59790;SDS011;47431;51.640;5.554;2023-02-15T13:54:09;45.40;;;31.20;;
59790;SDS011;47431;51.640;5.554;2023-02-15T13:56:48;43.42;;;30.20;;
59790;SDS011;47431;51.640;5.554;2023-02-15T14:01:45;44.88;;;30.98;;
59790;SDS011;47431;51.640;5.554;2023-02-15T14:20:02;47.10;;;32.25;;
59790;SDS011;47431;51.640;5.554;2023-02-15T14:22:31;51.00;;;34.28;;
59790;SDS011;47431;51.640;5.554;2023-02-15T14:25:02;67.22;;;35.88;;
59790;SDS011;47431;51.640;5.554;2023-02-15T14:32:41;55.60;;;36.58;;
59790;SDS011;47431;51.640;5.554;2023-02-15T14:35:12;58.22;;;37.45;;
59790;SDS011;47431;51.640;5.554;2023-02-15T14:40:06;71.30;;;36.97;;
59790;SDS011;47431;51.640;5.554;2023-02-15T14:43:00;59.20;;;35.45;;
59790;SDS011;47431;51.640;5.554;2023-02-15T14:48:12;74.65;;;36.17;;
59790;SDS011;47431;51.640;5.554;2023-02-15T14:50:44;66.07;;;37.17;;
59790;SDS011;47431;51.640;5.554;2023-02-15T14:55:47;58.45;;;36.08;;
59790;SDS011;47431;51.640;5.554;2023-02-15T14:58:12;54.33;;;35.33;;
59790;SDS011;47431;51.640;5.554;2023-02-15T15:00:39;63.67;;;35.20;;
59790;SDS011;47431;51.640;5.554;2023-02-15T15:03:23;47.60;;;33.10;;
59790;SDS011;47431;51.640;5.554;2023-02-15T15:05:52;79.63;;;38.65;;
59790;SDS011;47431;51.640;5.554;2023-02-15T15:08:26;69.15;;;35.63;;
59790;SDS011;47431;51.640;5.554;2023-02-15T15:10:54;47.80;;;34.33;;
59790;SDS011;47431;51.640;5.554;2023-02-15T15:18:45;56.47;;;32.45;;
59790;SDS011;47431;51.640;5.554;2023-02-15T15:21:10;52.97;;;33.22;;
59790;SDS011;47431;51.640;5.554;2023-02-15T15:26:34;52.20;;;32.67;;
59790;SDS011;47431;51.640;5.554;2023-02-15T15:28:53;72.60;;;38.37;;
59790;SDS011;47431;51.640;5.554;2023-02-15T15:49:26;51.40;;;33.40;;
59790;SDS011;47431;51.640;5.554;2023-02-15T15:51:53;49.03;;;32.50;;
59790;SDS011;47431;51.640;5.554;2023-02-15T15:54:19;51.42;;;32.70;;
59790;SDS011;47431;51.640;5.554;2023-02-15T15:56:49;48.20;;;30.90;;
59790;SDS011;47431;51.640;5.554;2023-02-15T15:59:19;54.42;;;33.42;;
59790;SDS011;47431;51.640;5.554;2023-02-15T16:01:45;49.38;;;31.25;;
59790;SDS011;47431;51.640;5.554;2023-02-15T16:04:12;50.78;;;32.58;;
59790;SDS011;47431;51.640;5.554;2023-02-15T16:06:39;57.15;;;32.85;;
59790;SDS011;47431;51.640;5.554;2023-02-15T16:09:18;63.08;;;32.28;;
59790;SDS011;47431;51.640;5.554;2023-02-15T16:11:45;48.85;;;33.40;;
59790;SDS011;47431;51.640;5.554;2023-02-15T16:14:23;53.83;;;33.10;;
59790;SDS011;47431;51.640;5.554;2023-02-15T16:16:51;54.05;;;33.38;;
59790;SDS011;47431;51.640;5.554;2023-02-15T16:19:21;50.53;;;33.25;;
59790;SDS011;47431;51.640;5.554;2023-02-15T16:21:47;48.72;;;33.15;;
59790;SDS011;47431;51.640;5.554;2023-02-15T16:29:28;56.15;;;32.90;;
59790;SDS011;47431;51.640;5.554;2023-02-15T16:32:00;44.65;;;30.60;;
59790;SDS011;47431;51.640;5.554;2023-02-15T16:37:11;52.65;;;33.08;;
59790;SDS011;47431;51.640;5.554;2023-02-15T16:39:37;44.58;;;30.63;;
59790;SDS011;47431;51.640;5.554;2023-02-15T16:42:05;51.95;;;31.88;;
59790;SDS011;47431;51.640;5.554;2023-02-15T16:44:30;45.60;;;31.10;;
59790;SDS011;47431;51.640;5.554;2023-02-15T16:46:57;42.03;;;31.02;;
59790;SDS011;47431;51.640;5.554;2023-02-15T16:49:27;46.58;;;32.13;;
59790;SDS011;47431;51.640;5.554;2023-02-15T16:51:54;45.90;;;32.17;;
59790;SDS011;47431;51.640;5.554;2023-02-15T16:54:21;51.28;;;34.55;;
59790;SDS011;47431;51.640;5.554;2023-02-15T16:56:46;49.05;;;32.20;;
59790;SDS011;47431;51.640;5.554;2023-02-15T16:59:27;43.40;;;30.38;;
59790;SDS011;47431;51.640;5.554;2023-02-15T17:01:53;46.88;;;30.30;;
59790;SDS011;47431;51.640;5.554;2023-02-15T17:07:03;46.33;;;29.13;;
59790;SDS011;47431;51.640;5.554;2023-02-15T17:11:54;47.92;;;30.38;;
59790;SDS011;47431;51.640;5.554;2023-02-15T17:14:29;50.17;;;31.55;;
59790;SDS011;47431;51.640;5.554;2023-02-15T17:17:02;45.40;;;30.65;;
59790;SDS011;47431;51.640;5.554;2023-02-15T17:19:31;46.65;;;30.33;;
59790;SDS011;47431;51.640;5.554;2023-02-15T17:22:01;46.35;;;31.95;;
59790;SDS011;47431;51.640;5.554;2023-02-15T17:24:32;47.63;;;30.33;;
59790;SDS011;47431;51.640;5.554;2023-02-15T17:27:00;48.50;;;33.20;;
59790;SDS011;47431;51.640;5.554;2023-02-15T17:29:29;46.63;;;30.85;;